Time;durP1;ratioP1;P1;durP2;ratioP2;P2;SDS_P1;SDS_P2;PMS_P1;PMS_P2;Temp;Humidity;BMP_temperature;BMP_pressure;BME280_temperature;BME280_humidity;BME280_pressure;Samples;Min_cycle;Max_cycle;Signal;HPM_P1;HPM_P2
2021/10/16 00:01:20;;;;;;;2.43;1.83;;;22.00;53.70;;;;;;5030447;28;20418;-82
2021/10/16 00:03:46;;;;;;;2.27;1.57;;;22.00;53.70;;;;;;5031244;28;20497;-82
2021/10/16 00:06:12;;;;;;;2.77;1.90;;;22.00;53.70;;;;;;5030486;28;20839;-82
2021/10/16 00:08:39;;;;;;;3.27;1.67;;;22.00;53.70;;;;;;5048888;28;20411;-82
2021/10/16 00:11:06;;;;;;;2.10;1.60;;;22.00;53.70;;;;;;5050568;28;20406;-82
2021/10/16 00:13:36;;;;;;;2.93;1.60;;;22.00;53.70;;;;;;5052133;28;20512;-82
2021/10/16 00:16:02;;;;;;;3.53;1.47;;;22.00;53.70;;;;;;5051604;28;20386;-82
2021/10/16 00:18:35;;;;;;;2.50;1.50;;;22.00;53.70;;;;;;5033729;28;20840;-82
2021/10/16 00:21:04;;;;;;;2.50;1.60;;;22.00;53.70;;;;;;5034244;28;20958;-82
2021/10/16 00:23:30;;;;;;;1.90;1.40;;;22.00;53.70;;;;;;5049820;28;20437;-81
2021/10/16 00:25:56;;;;;;;2.47;1.80;;;22.00;53.70;;;;;;5029574;28;20426;-81
2021/10/16 00:28:22;;;;;;;2.57;1.40;;;22.00;53.70;;;;;;5029353;28;20449;-81
2021/10/16 00:30:48;;;;;;;3.57;1.77;;;22.00;53.70;;;;;;5046986;28;20472;-81
2021/10/16 00:33:15;;;;;;;2.63;1.67;;;22.00;53.70;;;;;;5029674;28;20230;-81
2021/10/16 00:35:41;;;;;;;6.17;1.90;;;22.00;53.70;;;;;;5047348;28;20191;-81
2021/10/16 00:38:07;;;;;;;1.57;1.40;;;22.00;53.70;;;;;;5047248;28;20406;-81
2021/10/16 00:40:33;;;;;;;1.97;1.57;;;22.00;53.70;;;;;;5046971;28;20413;-81
2021/10/16 00:42:59;;;;;;;2.53;1.70;;;22.00;53.70;;;;;;5046759;28;20410;-81
2021/10/16 00:45:26;;;;;;;2.10;1.90;;;22.00;53.70;;;;;;5063256;28;20195;-81
2021/10/16 00:47:52;;;;;;;2.63;2.03;;;22.00;53.70;;;;;;5029311;28;20229;-81
2021/10/16 00:50:19;;;;;;;3.53;1.30;;;22.00;53.70;;;;;;5029215;28;20517;-81
2021/10/16 00:52:46;;;;;;;2.87;1.57;;;22.00;53.70;;;;;;5028309;28;20462;-81
2021/10/16 00:55:14;;;;;;;1.97;1.60;;;22.00;53.70;;;;;;5047253;28;20406;-81
2021/10/16 00:57:41;;;;;;;2.93;1.83;;;22.00;53.70;;;;;;5047021;28;20406;-81
2021/10/16 01:00:09;;;;;;;2.17;1.63;;;22.00;53.70;;;;;;5046471;28;20418;-81
2021/10/16 01:02:35;;;;;;;3.67;1.50;;;22.00;53.70;;;;;;5046769;28;20418;-81
2021/10/16 01:05:02;;;;;;;2.63;1.50;;;22.00;53.70;;;;;;5046481;28;20502;-81
2021/10/16 01:07:31;;;;;;;2.33;1.57;;;22.00;53.70;;;;;;5047060;28;20418;-81
2021/10/16 01:09:57;;;;;;;1.80;1.20;;;22.00;53.70;;;;;;5046654;28;20806;-81
2021/10/16 01:12:24;;;;;;;2.30;1.37;;;22.00;53.70;;;;;;5046490;28;20462;-81
2021/10/16 01:15:02;;;;;;;2.93;1.73;;;22.00;53.70;;;;;;5046302;28;20245;-81
2021/10/16 01:17:30;;;;;;;2.07;1.23;;;22.00;53.80;;;;;;5028532;28;20449;-79
2021/10/16 01:20:13;;;;;;;2.63;1.60;;;22.00;53.80;;;;;;5046634;28;20410;-80
2021/10/16 01:22:42;;;;;;;2.43;1.47;;;22.00;53.80;;;;;;5026898;28;20928;-81
2021/10/16 01:25:11;;;;;;;1.80;1.30;;;22.00;53.80;;;;;;5029075;28;20433;-80
2021/10/16 01:27:45;;;;;;;2.10;1.40;;;22.00;53.80;;;;;;5028992;28;20442;-80
2021/10/16 01:30:15;;;;;;;2.40;1.43;;;21.90;53.70;;;;;;5046496;28;20401;-81
2021/10/16 01:32:45;;;;;;;3.23;1.43;;;21.90;53.70;;;;;;5046251;28;20468;-81
2021/10/16 01:35:11;;;;;;;2.63;1.80;;;22.00;53.80;;;;;;5028431;28;20418;-81
2021/10/16 01:37:42;;;;;;;2.37;1.43;;;22.00;53.70;;;;;;5046614;28;20421;-81
2021/10/16 01:40:10;;;;;;;2.87;1.77;;;22.00;53.70;;;;;;5045588;28;20419;-81
2021/10/16 01:42:37;;;;;;;3.40;1.90;;;22.00;53.80;;;;;;5028819;28;20437;-81
2021/10/16 01:45:04;;;;;;;2.40;1.67;;;22.00;53.80;;;;;;5046277;28;20446;-81
2021/10/16 01:47:29;;;;;;;1.93;1.40;;;22.00;53.70;;;;;;5028297;28;20422;-81
2021/10/16 01:49:56;;;;;;;4.07;1.70;;;22.00;53.70;;;;;;5028745;28;20413;-81
2021/10/16 01:52:22;;;;;;;2.50;1.30;;;22.00;53.70;;;;;;5062275;28;20206;-81
2021/10/16 01:54:48;;;;;;;4.60;1.73;;;22.00;53.70;;;;;;5028867;28;20418;-81
2021/10/16 01:57:14;;;;;;;3.43;1.33;;;21.90;53.70;;;;;;5028398;28;20510;-81
2021/10/16 01:59:39;;;;;;;2.13;1.57;;;21.90;53.70;;;;;;5028179;28;20613;-81
2021/10/16 02:02:05;;;;;;;4.27;1.83;;;22.00;53.70;;;;;;5046000;28;20485;-81
2021/10/16 02:07:53;;;;;;;2.30;1.37;;;22.00;53.70;;;;;;5045774;28;20377;-80
2021/10/16 02:10:19;;;;;;;2.53;1.83;;;21.90;53.80;;;;;;5045557;28;20847;-80
2021/10/16 02:12:45;;;;;;;1.30;1.10;;;21.90;53.80;;;;;;5027326;28;20211;-81
2021/10/16 02:15:11;;;;;;;3.30;1.70;;;21.90;53.80;;;;;;5027685;28;20199;-81
2021/10/16 02:21:01;;;;;;;1.77;1.37;;;22.00;53.80;;;;;;5045140;28;20179;-80
2021/10/16 02:23:27;;;;;;;2.40;1.50;;;21.90;53.80;;;;;;5044707;28;20468;-80
2021/10/16 02:25:52;;;;;;;1.83;1.40;;;21.90;53.80;;;;;;5044957;28;20407;-80
2021/10/16 02:28:18;;;;;;;2.33;1.53;;;21.90;53.80;;;;;;5045115;28;20329;-80
2021/10/16 02:30:44;;;;;;;1.93;1.40;;;21.90;53.80;;;;;;5044462;28;20254;-80
2021/10/16 02:33:10;;;;;;;2.13;1.40;;;21.90;53.80;;;;;;5059878;28;20257;-80
2021/10/16 02:35:35;;;;;;;4.03;1.53;;;21.90;53.80;;;;;;5060045;28;20171;-80
2021/10/16 02:38:01;;;;;;;3.03;2.00;;;21.90;53.80;;;;;;5027249;28;20178;-80
2021/10/16 02:40:27;;;;;;;2.23;1.50;;;21.90;53.80;;;;;;5044734;28;20168;-80
2021/10/16 02:42:52;;;;;;;1.40;1.10;;;21.90;53.80;;;;;;5044582;28;20174;-80
2021/10/16 02:45:19;;;;;;;2.00;1.40;;;21.90;53.80;;;;;;5027150;28;20179;-80
2021/10/16 02:47:46;;;;;;;2.00;1.30;;;21.90;53.80;;;;;;5007409;28;20192;-80
2021/10/16 02:50:12;;;;;;;2.70;1.77;;;21.80;53.70;;;;;;5007541;28;20858;-80
2021/10/16 02:52:38;;;;;;;2.80;1.73;;;21.80;53.70;;;;;;5024648;28;20451;-80
2021/10/16 02:55:04;;;;;;;2.00;1.23;;;21.80;53.70;;;;;;5007058;28;20434;-80
2021/10/16 02:57:30;;;;;;;1.83;1.33;;;21.80;53.80;;;;;;5022822;28;20179;-80
2021/10/16 02:59:56;;;;;;;2.13;1.40;;;21.80;53.70;;;;;;5024315;28;20411;-80
2021/10/16 03:02:22;;;;;;;2.70;1.57;;;21.80;53.80;;;;;;5006482;28;20188;-80
2021/10/16 03:04:47;;;;;;;2.10;1.40;;;21.80;53.80;;;;;;5006862;28;20618;-81
2021/10/16 03:10:35;;;;;;;1.20;1.10;;;21.90;53.80;;;;;;5024370;28;20168;-80
2021/10/16 03:13:01;;;;;;;2.90;1.13;;;21.80;53.80;;;;;;5006507;28;20463;-81
2021/10/16 03:15:27;;;;;;;2.73;1.20;;;21.80;53.80;;;;;;5006762;28;20179;-80
2021/10/16 03:17:52;;;;;;;2.20;1.30;;;21.80;53.80;;;;;;5007340;28;20612;-79
2021/10/16 03:20:18;;;;;;;1.73;1.30;;;21.80;53.80;;;;;;5006672;28;20653;-79
2021/10/16 03:22:44;;;;;;;1.43;1.20;;;21.80;53.80;;;;;;5006967;28;20196;-81
2021/10/16 03:25:09;;;;;;;2.83;1.30;;;21.90;53.80;;;;;;5007600;28;20184;-81
2021/10/16 03:27:36;;;;;;;2.33;1.20;;;21.80;53.80;;;;;;5023947;28;20188;-81
2021/10/16 03:30:02;;;;;;;1.93;1.20;;;21.80;53.80;;;;;;5023332;28;20550;-81
2021/10/16 03:32:28;;;;;;;3.57;1.40;;;21.90;53.80;;;;;;5023378;28;20567;-81
2021/10/16 03:38:16;;;;;;;2.63;1.50;;;21.90;53.80;;;;;;5024155;28;20164;-81
2021/10/16 03:40:41;;;;;;;2.07;1.10;;;21.80;53.80;;;;;;5024075;28;20901;-81
2021/10/16 03:46:29;;;;;;;1.80;1.10;;;21.80;53.80;;;;;;5027835;28;20163;-81
2021/10/16 03:48:55;;;;;;;2.03;1.30;;;21.80;53.80;;;;;;5027070;28;20478;-81
2021/10/16 03:51:21;;;;;;;1.67;1.20;;;21.80;53.80;;;;;;5011094;28;20454;-81
2021/10/16 03:53:47;;;;;;;1.60;1.30;;;21.80;53.80;;;;;;5028109;28;20632;-81
2021/10/16 03:56:13;;;;;;;2.23;1.47;;;21.80;53.80;;;;;;5010026;28;20498;-81
2021/10/16 03:58:39;;;;;;;1.43;1.20;;;21.80;53.80;;;;;;5028199;28;20176;-81
2021/10/16 04:01:04;;;;;;;1.30;1.10;;;21.80;53.80;;;;;;5010653;28;20172;-80
2021/10/16 04:03:31;;;;;;;2.03;1.27;;;21.80;53.80;;;;;;5010050;28;20183;-81
2021/10/16 04:05:57;;;;;;;1.80;1.30;;;21.80;53.70;;;;;;5028057;28;20473;-81
2021/10/16 04:08:23;;;;;;;1.90;1.30;;;21.80;53.80;;;;;;5010197;28;20466;-81
2021/10/16 04:10:49;;;;;;;1.63;1.53;;;21.80;53.80;;;;;;5028397;28;20410;-81
2021/10/16 04:16:37;;;;;;;2.10;1.33;;;21.80;53.70;;;;;;5030722;28;20422;-81
2021/10/16 04:22:25;;;;;;;1.90;1.20;;;21.80;53.80;;;;;;5048255;28;20534;-81
2021/10/16 04:24:50;;;;;;;1.63;1.30;;;21.70;53.80;;;;;;5030341;28;20414;-81
2021/10/16 04:27:16;;;;;;;2.23;1.10;;;21.80;53.90;;;;;;5030304;28;20496;-81
2021/10/16 04:29:42;;;;;;;1.50;1.20;;;21.80;53.90;;;;;;5030007;28;20176;-81
2021/10/16 04:32:08;;;;;;;2.40;1.40;;;21.80;53.90;;;;;;5029895;28;20182;-81
2021/10/16 04:34:34;;;;;;;1.40;1.00;;;21.80;53.90;;;;;;5047427;28;20818;-81
2021/10/16 04:36:59;;;;;;;2.03;1.20;;;21.80;53.80;;;;;;5030140;28;20262;-81
2021/10/16 04:39:27;;;;;;;2.27;1.60;;;21.80;53.80;;;;;;5047636;28;20318;-81
2021/10/16 04:41:53;;;;;;;2.00;1.20;;;21.90;53.80;;;;;;5048666;28;20237;-81
2021/10/16 04:44:19;;;;;;;1.70;0.90;;;21.80;53.70;;;;;;5048888;28;20414;-81
2021/10/16 04:46:44;;;;;;;2.10;1.27;;;21.90;53.80;;;;;;5030672;28;20160;-81
2021/10/16 04:49:10;;;;;;;1.53;1.27;;;21.90;53.70;;;;;;5047548;28;20225;-81
2021/10/16 04:51:36;;;;;;;2.27;1.30;;;21.90;53.70;;;;;;5029626;28;20175;-81
2021/10/16 04:54:02;;;;;;;2.07;1.10;;;21.90;53.70;;;;;;5046680;28;20200;-80
2021/10/16 04:56:28;;;;;;;1.80;1.30;;;21.90;53.60;;;;;;5029052;28;20425;-81
2021/10/16 04:58:53;;;;;;;2.77;1.50;;;21.90;53.60;;;;;;5029439;28;20194;-82
2021/10/16 05:01:19;;;;;;;1.57;1.00;;;21.90;53.60;;;;;;5048419;28;20235;-82
2021/10/16 05:03:45;;;;;;;1.20;1.00;;;21.90;53.60;;;;;;5048636;28;20178;-81
2021/10/16 05:06:11;;;;;;;2.53;1.20;;;21.90;53.60;;;;;;5030169;28;20422;-82
2021/10/16 05:08:36;;;;;;;1.80;1.37;;;21.90;53.50;;;;;;5030728;28;20203;-83
2021/10/16 05:11:48;;;;;;;1.73;1.30;;;22.00;53.60;;;;;;5029967;28;20210;-82
2021/10/16 05:14:14;;;;;;;2.60;1.50;;;22.00;53.60;;;;;;5047604;28;20192;-82
2021/10/16 05:16:39;;;;;;;2.10;1.40;;;22.00;53.60;;;;;;5047089;28;20414;-82
2021/10/16 05:19:08;;;;;;;1.10;1.00;;;21.90;53.50;;;;;;5029758;28;20172;-81
2021/10/16 05:21:34;;;;;;;1.33;1.10;;;22.00;53.60;;;;;;5030168;28;20735;-82
2021/10/16 05:24:00;;;;;;;1.80;1.13;;;22.00;53.60;;;;;;5029283;28;20476;-82
2021/10/16 05:26:26;;;;;;;1.70;1.20;;;22.00;53.50;;;;;;5052782;28;20187;-81
2021/10/16 05:28:55;;;;;;;3.70;1.30;;;22.00;53.50;;;;;;5034881;28;20440;-82
2021/10/16 05:31:21;;;;;;;1.87;1.33;;;22.00;53.50;;;;;;5034249;28;20422;-81
2021/10/16 05:33:47;;;;;;;2.00;1.40;;;22.00;53.50;;;;;;5045634;28;20462;-81
2021/10/16 05:36:13;;;;;;;1.53;1.23;;;22.00;53.50;;;;;;5046243;28;20406;-80
2021/10/16 05:38:38;;;;;;;2.10;1.20;;;22.00;53.50;;;;;;5029913;28;20308;-82
2021/10/16 05:41:04;;;;;;;1.60;1.00;;;22.00;53.50;;;;;;5042328;28;20171;-83
2021/10/16 05:43:30;;;;;;;1.30;0.90;;;22.00;53.50;;;;;;5030084;28;20206;-82
2021/10/16 05:45:55;;;;;;;1.30;1.10;;;22.00;53.40;;;;;;5030642;28;20180;-81
2021/10/16 05:48:21;;;;;;;1.63;1.10;;;22.00;53.40;;;;;;5030544;28;20216;-82
2021/10/16 05:50:47;;;;;;;5.60;1.20;;;22.00;53.40;;;;;;5030627;28;20645;-82
2021/10/16 05:54:03;;;;;;;2.30;1.20;;;22.00;53.40;;;;;;5031027;28;20457;-82
2021/10/16 05:56:29;;;;;;;1.23;1.00;;;22.10;53.40;;;;;;5030768;28;20175;-82
2021/10/16 05:58:58;;;;;;;2.00;1.10;;;22.00;53.40;;;;;;5031043;28;20402;-82
2021/10/16 06:01:24;;;;;;;2.50;1.30;;;22.00;53.40;;;;;;5047791;28;20406;-82
2021/10/16 06:03:50;;;;;;;1.97;1.07;;;22.00;53.40;;;;;;5030405;28;20418;-82
2021/10/16 06:06:16;;;;;;;1.13;1.00;;;22.00;53.50;;;;;;5031155;28;20506;-81
2021/10/16 06:08:41;;;;;;;1.73;1.23;;;22.00;53.50;;;;;;5028965;28;20183;-81
2021/10/16 06:14:36;;;;;;;2.77;1.20;;;22.00;53.40;;;;;;5047480;28;20451;-80
2021/10/16 06:17:03;;;;;;;2.03;1.20;;;22.00;53.50;;;;;;5028795;28;20410;-82
2021/10/16 06:19:29;;;;;;;2.23;1.20;;;22.00;53.50;;;;;;5047735;28;20175;-81
2021/10/16 06:21:55;;;;;;;2.03;1.27;;;22.10;53.60;;;;;;5029013;28;20387;-81
2021/10/16 06:24:20;;;;;;;1.73;1.13;;;22.10;53.50;;;;;;5030183;28;20781;-81
2021/10/16 06:26:46;;;;;;;1.43;1.10;;;22.10;53.50;;;;;;5047864;28;20174;-82
2021/10/16 06:29:12;;;;;;;3.63;1.20;;;22.10;53.50;;;;;;5046448;28;20180;-80
2021/10/16 06:31:38;;;;;;;2.20;1.57;;;22.10;53.50;;;;;;5029366;28;20175;-80
2021/10/16 06:34:03;;;;;;;2.30;1.20;;;22.10;53.40;;;;;;5047062;28;20188;-79
2021/10/16 06:36:29;;;;;;;1.87;1.30;;;22.10;53.40;;;;;;5047125;28;20769;-80
2021/10/16 06:42:17;;;;;;;4.80;1.50;;;22.10;53.30;;;;;;5046947;28;20162;-80
2021/10/16 06:44:43;;;;;;;2.97;1.90;;;22.00;53.30;;;;;;5047588;28;20478;-80
2021/10/16 06:47:08;;;;;;;1.83;1.17;;;22.00;53.30;;;;;;5029067;28;20195;-80
2021/10/16 06:52:56;;;;;;;3.73;1.27;;;22.10;53.40;;;;;;5046859;28;20203;-80
2021/10/16 06:55:22;;;;;;;2.70;2.27;;;22.00;53.30;;;;;;5028708;28;20426;-80
2021/10/16 06:57:48;;;;;;;2.70;1.30;;;22.00;53.30;;;;;;5046042;28;20266;-80
2021/10/16 07:00:16;;;;;;;1.73;1.10;;;22.00;53.30;;;;;;5028886;28;20194;-80
2021/10/16 07:02:42;;;;;;;2.30;1.47;;;22.10;53.40;;;;;;5029462;28;20183;-80
2021/10/16 07:05:08;;;;;;;1.77;1.13;;;22.10;53.40;;;;;;5046588;28;20514;-80
2021/10/16 07:07:34;;;;;;;2.83;1.13;;;22.10;53.40;;;;;;5028657;28;20179;-80
2021/10/16 07:09:59;;;;;;;4.03;1.30;;;22.10;53.40;;;;;;5046323;28;20433;-80
2021/10/16 07:12:27;;;;;;;2.27;1.10;;;22.10;53.30;;;;;;5027965;28;20295;-80
2021/10/16 07:14:52;;;;;;;2.40;1.03;;;22.10;53.30;;;;;;5029421;28;20168;-80
2021/10/16 07:17:18;;;;;;;3.17;1.30;;;22.10;53.30;;;;;;5029014;28;20418;-80
2021/10/16 07:19:44;;;;;;;2.00;1.17;;;22.10;53.30;;;;;;5046423;28;20445;-80
2021/10/16 07:22:10;;;;;;;2.60;1.10;;;22.10;53.30;;;;;;5046750;28;20183;-80
2021/10/16 07:24:35;;;;;;;1.87;1.20;;;22.10;53.30;;;;;;5028479;28;20263;-80
2021/10/16 07:27:01;;;;;;;2.40;1.33;;;22.10;53.30;;;;;;5045979;28;20202;-80
2021/10/16 07:29:27;;;;;;;3.53;1.90;;;22.10;53.30;;;;;;5028679;28;20514;-80
2021/10/16 07:31:53;;;;;;;1.30;1.03;;;22.10;53.30;;;;;;5028268;28;20191;-80
2021/10/16 07:34:20;;;;;;;2.07;1.17;;;22.10;53.20;;;;;;5046369;28;20203;-80
2021/10/16 07:36:48;;;;;;;2.90;1.30;;;22.10;53.20;;;;;;5028822;28;20416;-80
2021/10/16 07:39:14;;;;;;;1.60;1.17;;;22.10;53.20;;;;;;5061665;28;20501;-80
2021/10/16 07:41:44;;;;;;;1.40;0.97;;;22.10;53.20;;;;;;5028282;28;20506;-80
2021/10/16 07:44:10;;;;;;;1.60;1.03;;;22.10;53.20;;;;;;5046051;28;20493;-80
2021/10/16 07:46:36;;;;;;;1.47;1.10;;;22.10;53.80;;;;;;5028895;28;20421;-80
2021/10/16 07:49:02;;;;;;;1.80;1.27;;;22.10;53.20;;;;;;5061300;28;20195;-80
2021/10/16 07:51:28;;;;;;;4.03;1.40;;;22.10;53.20;;;;;;5028801;28;20629;-80
2021/10/16 07:57:16;;;;;;;1.60;1.20;;;22.10;53.20;;;;;;5045766;28;20156;-80
2021/10/16 07:59:42;;;;;;;1.13;1.03;;;22.10;53.30;;;;;;5045716;28;20497;-80
2021/10/16 08:02:07;;;;;;;1.70;1.20;;;22.10;53.30;;;;;;5027798;28;20178;-80
2021/10/16 08:04:33;;;;;;;1.60;1.10;;;22.10;53.20;;;;;;5027792;28;20172;-80
2021/10/16 08:06:59;;;;;;;1.43;1.07;;;22.10;53.30;;;;;;5061188;28;20234;-79
2021/10/16 08:09:24;;;;;;;1.90;1.07;;;22.10;53.30;;;;;;5028172;28;20540;-80
2021/10/16 08:11:50;;;;;;;1.60;1.30;;;22.10;53.20;;;;;;5046252;28;20187;-80
2021/10/16 08:14:16;;;;;;;1.47;1.20;;;22.10;53.20;;;;;;5061139;28;20203;-80
2021/10/16 08:16:42;;;;;;;2.33;1.20;;;22.10;53.20;;;;;;5046601;28;20653;-80
2021/10/16 08:19:07;;;;;;;1.87;1.27;;;22.10;53.30;;;;;;5028567;28;20176;-80
2021/10/16 08:21:35;;;;;;;1.50;1.03;;;22.10;53.20;;;;;;5046593;28;20191;-80
2021/10/16 08:24:01;;;;;;;1.30;1.00;;;22.10;53.20;;;;;;5028427;28;20226;-80
2021/10/16 08:26:27;;;;;;;1.40;1.10;;;22.10;53.20;;;;;;5045450;28;20407;-80
2021/10/16 08:28:53;;;;;;;2.40;1.10;;;22.10;53.20;;;;;;5028024;28;20525;-80
2021/10/16 08:31:18;;;;;;;1.50;1.00;;;22.10;53.20;;;;;;5029218;28;20210;-80
2021/10/16 08:34:23;;;;;;;3.80;1.47;;;22.10;53.20;;;;;;5031050;28;20203;-80
2021/10/16 08:36:49;;;;;;;3.20;1.33;;;22.10;53.20;;;;;;5031117;28;20179;-80
2021/10/16 08:39:15;;;;;;;1.83;1.30;;;22.10;53.20;;;;;;5049154;28;20402;-80
2021/10/16 08:41:42;;;;;;;1.63;1.30;;;22.10;53.20;;;;;;5064141;28;20183;-80
2021/10/16 08:44:08;;;;;;;1.20;1.00;;;22.10;53.30;;;;;;5048932;28;20187;-80
2021/10/16 08:46:41;;;;;;;1.40;0.93;;;22.10;53.30;;;;;;5048456;28;20412;-80
2021/10/16 08:49:06;;;;;;;1.63;1.20;;;22.10;53.20;;;;;;5049027;28;20391;-80
2021/10/16 08:51:32;;;;;;;1.27;0.80;;;22.10;53.30;;;;;;5049150;28;20432;-80
2021/10/16 08:54:00;;;;;;;2.90;1.27;;;22.10;53.20;;;;;;5048803;28;20247;-80
2021/10/16 08:56:26;;;;;;;1.80;1.50;;;22.10;53.30;;;;;;5031535;28;20247;-80
2021/10/16 08:58:52;;;;;;;1.17;0.90;;;22.10;53.30;;;;;;5031221;28;20411;-80
2021/10/16 09:01:18;;;;;;;1.40;1.00;;;22.10;53.20;;;;;;5064158;28;20179;-80
2021/10/16 09:03:47;;;;;;;1.57;1.20;;;22.10;53.20;;;;;;5030725;28;20481;-80
2021/10/16 09:06:23;;;;;;;1.10;0.90;;;22.10;53.20;;;;;;5031112;28;20445;-80
2021/10/16 09:09:04;;;;;;;2.30;1.10;;;22.10;53.30;;;;;;5029597;28;20437;-80
2021/10/16 09:11:32;;;;;;;2.33;1.10;;;22.10;53.20;;;;;;5029302;28;20454;-80
2021/10/16 09:14:21;;;;;;;1.40;1.00;;;22.20;53.30;;;;;;5029303;28;20799;-81
2021/10/16 09:16:48;;;;;;;1.47;0.90;;;22.10;53.20;;;;;;5031659;28;20469;-80
2021/10/16 09:19:40;;;;;;;1.87;1.10;;;22.10;53.20;;;;;;5031711;28;20472;-80
2021/10/16 09:22:09;;;;;;;1.67;1.23;;;22.10;53.20;;;;;;4987901;28;20417;-80
2021/10/16 09:24:39;;;;;;;1.77;1.00;;;22.10;53.20;;;;;;4971386;28;20421;-80
2021/10/16 09:27:09;;;;;;;1.57;1.03;;;22.10;53.20;;;;;;4988482;28;20532;-80
2021/10/16 09:29:38;;;;;;;1.03;0.93;;;22.10;53.20;;;;;;4971985;28;20489;-80
2021/10/16 09:32:10;;;;;;;2.43;1.03;;;22.10;53.20;;;;;;4971436;28;20421;-80
2021/10/16 09:34:38;;;;;;;2.20;1.20;;;22.20;53.30;;;;;;4970784;28;20467;-80
2021/10/16 09:37:20;;;;;;;1.10;0.97;;;22.20;53.30;;;;;;4971444;28;20417;-80
2021/10/16 09:43:21;;;;;;;1.20;1.00;;;22.20;53.20;;;;;;4981839;28;20416;-80
2021/10/16 09:45:47;;;;;;;1.17;1.03;;;22.10;53.20;;;;;;4969146;28;20473;-80
2021/10/16 09:48:36;;;;;;;1.43;0.90;;;22.10;53.20;;;;;;4969790;28;20425;-80
2021/10/16 09:51:03;;;;;;;2.53;1.20;;;22.20;53.30;;;;;;4959673;28;20470;-80
2021/10/16 09:53:31;;;;;;;2.13;1.10;;;22.10;53.20;;;;;;4969906;28;20483;-80
2021/10/16 09:55:59;;;;;;;1.20;0.90;;;22.20;53.30;;;;;;4986079;28;20436;-80
2021/10/16 09:58:25;;;;;;;1.20;1.00;;;22.20;53.20;;;;;;5004216;28;20521;-80
2021/10/16 10:00:54;;;;;;;1.20;0.93;;;22.20;53.80;;;;;;5045743;28;20441;-80
2021/10/16 10:03:25;;;;;;;2.93;1.13;;;22.20;53.20;;;;;;5027505;28;20431;-79
2021/10/16 10:05:57;;;;;;;1.30;1.00;;;22.20;53.30;;;;;;5031512;28;20448;-80
2021/10/16 10:08:24;;;;;;;1.87;1.10;;;22.20;53.20;;;;;;5040436;28;20431;-80
2021/10/16 10:10:49;;;;;;;1.87;1.10;;;22.20;53.20;;;;;;5029098;28;20486;-80
2021/10/16 10:13:16;;;;;;;2.80;1.27;;;22.20;53.20;;;;;;5028428;28;20496;-80
2021/10/16 10:15:43;;;;;;;2.13;0.90;;;22.20;53.20;;;;;;5025068;28;20175;-80
2021/10/16 10:20:58;;;;;;;1.40;1.20;;;22.20;53.20;;;;;;5045153;28;20441;-80
2021/10/16 10:23:27;;;;;;;2.43;0.83;;;22.20;53.20;;;;;;5029781;28;20437;-80
2021/10/16 10:26:25;;;;;;;2.20;1.47;;;22.20;53.20;;;;;;5041515;28;20520;-80
2021/10/16 10:28:53;;;;;;;2.43;1.10;;;22.20;53.20;;;;;;5038997;28;20442;-80
2021/10/16 10:31:44;;;;;;;2.97;1.10;;;22.20;53.30;;;;;;5027948;28;20426;-79
2021/10/16 10:34:15;;;;;;;1.30;0.83;;;22.20;53.20;;;;;;5040075;28;20512;-80
2021/10/16 10:36:44;;;;;;;2.17;1.20;;;22.20;53.30;;;;;;5016882;28;20422;-79
2021/10/16 10:39:35;;;;;;;2.60;1.17;;;22.20;53.30;;;;;;5026650;28;20500;-79
2021/10/16 10:42:13;;;;;;;2.63;1.20;;;22.20;53.30;;;;;;5043342;28;20442;-79
2021/10/16 10:44:51;;;;;;;4.13;1.10;;;22.20;53.30;;;;;;5025932;28;20871;-79
2021/10/16 10:47:32;;;;;;;1.53;1.10;;;22.20;53.70;;;;;;5038635;28;20488;-80
2021/10/16 10:50:00;;;;;;;3.13;1.13;;;22.20;53.30;;;;;;5019035;28;20442;-80
2021/10/16 10:52:28;;;;;;;1.60;1.10;;;22.20;53.30;;;;;;5043071;28;20458;-80
2021/10/16 10:55:05;;;;;;;2.70;1.60;;;22.20;53.30;;;;;;5025505;28;21121;-79
2021/10/16 10:57:48;;;;;;;2.77;1.33;;;22.20;53.30;;;;;;5024975;28;20433;-79
2021/10/16 11:00:39;;;;;;;1.60;1.07;;;22.20;53.20;;;;;;5050283;28;20417;-79
2021/10/16 11:06:26;;;;;;;1.40;1.17;;;22.20;53.30;;;;;;5031580;28;20774;-79
2021/10/16 11:09:18;;;;;;;1.40;1.03;;;22.10;53.20;;;;;;5025061;28;20430;-79
2021/10/16 11:11:50;;;;;;;2.00;1.20;;;22.20;53.30;;;;;;5027607;28;20191;-81
2021/10/16 11:14:19;;;;;;;1.93;1.20;;;22.20;53.30;;;;;;5026322;28;20450;-80
2021/10/16 11:16:55;;;;;;;3.40;1.00;;;22.20;53.30;;;;;;5026580;28;20410;-80
2021/10/16 11:19:22;;;;;;;1.33;1.00;;;22.20;53.80;;;;;;5009171;28;20411;-80
2021/10/16 11:21:54;;;;;;;1.90;1.43;;;22.20;53.30;;;;;;5008440;28;20472;-80
2021/10/16 11:24:27;;;;;;;2.03;1.00;;;22.20;53.20;;;;;;5008560;28;20423;-80
2021/10/16 11:26:58;;;;;;;1.00;0.80;;;22.20;53.20;;;;;;5025709;28;20423;-80
2021/10/16 11:29:36;;;;;;;1.53;1.13;;;22.20;53.20;;;;;;5026381;28;20422;-80
2021/10/16 11:32:16;;;;;;;1.40;1.10;;;22.20;53.20;;;;;;5007926;28;20423;-80
2021/10/16 11:35:00;;;;;;;1.60;1.13;;;22.30;53.30;;;;;;5008549;28;20480;-80
2021/10/16 11:37:38;;;;;;;1.40;1.03;;;22.30;53.30;;;;;;5008599;28;20422;-80
2021/10/16 11:40:13;;;;;;;2.40;1.10;;;22.20;53.20;;;;;;5024437;28;20423;-80
2021/10/16 11:42:44;;;;;;;2.23;1.30;;;22.20;53.20;;;;;;5008709;28;20457;-80
2021/10/16 11:45:13;;;;;;;2.20;1.40;;;22.30;53.30;;;;;;5009119;28;20415;-79
2021/10/16 11:47:45;;;;;;;1.63;1.23;;;22.30;53.30;;;;;;5026918;28;20413;-79
2021/10/16 11:50:20;;;;;;;1.90;1.20;;;22.30;53.80;;;;;;5027965;28;20503;-80
2021/10/16 11:52:55;;;;;;;1.70;1.30;;;22.30;53.20;;;;;;5027733;28;20458;-80
2021/10/16 11:55:23;;;;;;;2.20;1.40;;;22.20;53.10;;;;;;5027575;28;20487;-80
2021/10/16 11:57:50;;;;;;;2.27;1.20;;;22.20;53.10;;;;;;5028989;28;20803;-80
2021/10/16 12:00:24;;;;;;;1.67;1.30;;;22.20;53.10;;;;;;5010377;28;20407;-80
2021/10/16 12:02:50;;;;;;;1.30;1.10;;;22.30;53.20;;;;;;5010689;28;20419;-80
2021/10/16 12:05:18;;;;;;;2.40;1.50;;;22.20;53.10;;;;;;5010072;28;20423;-80
2021/10/16 12:07:44;;;;;;;2.10;1.30;;;22.20;53.10;;;;;;5014379;28;20457;-80
2021/10/16 12:10:29;;;;;;;2.43;1.80;;;22.30;53.20;;;;;;5031656;28;20411;-81
2021/10/16 12:13:09;;;;;;;1.73;1.10;;;22.30;53.20;;;;;;5013633;28;20463;-80
2021/10/16 12:15:39;;;;;;;2.40;1.30;;;22.30;53.20;;;;;;5031823;28;20415;-79
2021/10/16 12:18:05;;;;;;;1.60;1.30;;;22.20;53.20;;;;;;5031484;28;20407;-80
2021/10/16 12:20:48;;;;;;;1.90;1.47;;;22.20;53.10;;;;;;5031198;28;20444;-80
2021/10/16 12:23:14;;;;;;;1.50;1.20;;;22.30;53.20;;;;;;5014409;28;20426;-80
2021/10/16 12:25:52;;;;;;;1.40;1.00;;;22.20;53.10;;;;;;5030920;28;20422;-80
2021/10/16 12:28:19;;;;;;;1.30;1.20;;;22.30;53.20;;;;;;5013961;28;20529;-80
2021/10/16 12:31:02;;;;;;;1.50;1.13;;;22.30;53.20;;;;;;5031480;28;20419;-80
2021/10/16 12:33:28;;;;;;;2.43;1.50;;;22.30;53.10;;;;;;5029232;28;20465;-80
2021/10/16 12:36:02;;;;;;;2.67;1.10;;;22.20;53.10;;;;;;5013002;28;20415;-80
2021/10/16 12:38:46;;;;;;;3.00;1.10;;;22.30;53.20;;;;;;5028606;28;20494;-79
2021/10/16 12:41:47;;;;;;;1.77;1.30;;;22.30;53.10;;;;;;5012167;28;20911;-80
2021/10/16 12:44:25;;;;;;;2.37;1.30;;;22.30;53.10;;;;;;5008208;28;20419;-80
2021/10/16 12:47:23;;;;;;;2.43;1.10;;;22.20;53.20;;;;;;5031958;28;20442;-79
2021/10/16 12:50:03;;;;;;;2.23;1.63;;;22.30;53.20;;;;;;4972199;29;20974;-79
2021/10/16 12:52:44;;;;;;;1.50;1.30;;;22.30;53.20;;;;;;4971113;29;20478;-79
2021/10/16 12:55:17;;;;;;;3.60;1.60;;;22.20;53.20;;;;;;4969266;29;20428;-79
2021/10/16 12:58:00;;;;;;;3.27;1.53;;;22.20;53.10;;;;;;4972013;29;20414;-80
2021/10/16 13:00:35;;;;;;;2.90;1.70;;;22.30;53.20;;;;;;4971494;29;20470;-79
2021/10/16 13:03:06;;;;;;;2.37;1.30;;;22.30;53.20;;;;;;4988884;28;20868;-79
2021/10/16 13:05:35;;;;;;;1.93;1.50;;;22.20;53.10;;;;;;4956383;29;20418;-79
2021/10/16 13:08:02;;;;;;;4.23;1.80;;;22.20;53.10;;;;;;4988168;28;20434;-79
2021/10/16 13:10:29;;;;;;;2.70;1.70;;;22.20;53.00;;;;;;4972707;29;20461;-79
2021/10/16 13:12:55;;;;;;;2.10;1.43;;;22.20;53.00;;;;;;4971220;29;21007;-80
2021/10/16 13:15:21;;;;;;;2.00;1.57;;;22.20;53.00;;;;;;4987781;28;20457;-79
2021/10/16 13:17:48;;;;;;;2.37;1.73;;;22.30;53.00;;;;;;4988182;28;20432;-80
2021/10/16 13:20:15;;;;;;;3.20;1.70;;;22.30;53.00;;;;;;4955862;29;20418;-79
2021/10/16 13:22:41;;;;;;;3.00;1.70;;;22.20;52.90;;;;;;4988202;28;20425;-79
2021/10/16 13:25:09;;;;;;;4.37;1.90;;;22.20;52.90;;;;;;4955878;29;20422;-80
2021/10/16 13:27:35;;;;;;;4.20;1.70;;;22.20;52.90;;;;;;5026242;28;20526;-80
2021/10/16 13:30:06;;;;;;;2.33;1.50;;;22.20;52.90;;;;;;5014914;28;20415;-79
2021/10/16 13:32:34;;;;;;;4.20;1.60;;;22.20;53.40;;;;;;5014768;28;20466;-80
2021/10/16 13:35:00;;;;;;;3.10;1.67;;;22.20;52.80;;;;;;5014752;28;20430;-79
2021/10/16 13:37:28;;;;;;;2.97;1.57;;;22.20;52.80;;;;;;5014708;28;20420;-79
2021/10/16 13:39:57;;;;;;;2.00;1.70;;;22.20;52.80;;;;;;5032506;28;20399;-80
2021/10/16 13:42:23;;;;;;;3.37;1.63;;;22.20;52.70;;;;;;5014825;28;20423;-79
2021/10/16 13:44:50;;;;;;;2.10;1.80;;;22.20;52.70;;;;;;5014323;28;20435;-80